Tropical Cyclones
[Index]
Main Index Home Page Stock Weather Photos Extreme Storms Discussion Storm News and Storm Chasing Reports Tropical Cyclones / Hurricanes / Typhoons Weather Data and Links Wild Fires / Bushfires Weather Observation Techniques Weather Picture Catalogue Tornado Pictures and Reports Stock Video Footage and DVDs for sale
Season 1999-2000 Tropical Cyclone KIM Track Map
Season 1999-2000 Summaries (Operational Data): [AU] [SIO] [SPAC] [SH]
<<- Previous TC | 1999-2000 Season | Next TC ->>

click for intensity scale information  Lat/long Grid: Show Hide

 Date Labels: Show Hide

Operational Tropical Cyclone Data : JTWC Advisories

Name: KIM
Number: 0013

23 Feb 2000 21:00 UTC to 29 Feb 2000 18:00 UTC

    date/time    lat    long     hPa   cat  kts
2000-02-23 21   23.3   134.0W   1005         20          
2000-02-24 00   23.2   134.1W   1002         20          
2000-02-24 06   23.1   134.4W   1001         25          
2000-02-24 12   23.6   135.1W    996         30          
2000-02-24 18   23.2   135.6W    995    1    35          
2000-02-25 00   23.2   136.0W    990    1    40          
2000-02-25 06   23.4   136.4W    980    2    55          
2000-02-25 12   23.5   137.0W    972    3    65          
2000-02-25 18   24.0   137.5W    970    3    65          
2000-02-26 00   24.4   138.4W    960    3    75          
2000-02-26 06   24.8   139.2W    955    3    80          
2000-02-26 12   25.4   139.8W    955    3    80          
2000-02-26 18   26.3   140.8W    955    3    80          
2000-02-27 00   27.2   141.7W    960    3    75          
2000-02-27 06   28.0   142.6W    965    3    70          
2000-02-27 12   29.0   144.1W    965    3    70          
2000-02-27 18   29.4   144.7W    975    2    60          
2000-02-28 00   29.8   145.2W    980    2    55          
2000-02-28 06   31.0   147.5W    983    2    50          
2000-02-28 12   31.6   149.0W    985    2    50          
2000-02-28 18   32.5   149.3W    987    1    45          
2000-02-29 00   33.2   149.6W    987    1    45          
2000-02-29 06   34.0   150.5W    990    1    40          
2000-02-29 12   35.5   151.5W    994    1    35          
2000-02-29 18   36.1   152.4W                            
Winds are 10-min average.

Tropical cyclone tracks developed by Michael Bath using operational warnings and advisories and Google Maps.


[Australian Severe Weather index] [Copyright Notice] [Email Contacts] [Search This Site] [Privacy Policy]
Document: tropical_cyclone_kim.htm Updated: 28 May 2013